createdAt,value
2019-03-04T00:00:10.672Z,64.80
2019-03-04T00:01:10.661Z,59.70
2019-03-04T00:02:10.652Z,70.00
2019-03-04T00:03:10.639Z,63.70
2019-03-04T00:04:10.583Z,59.50
2019-03-04T00:05:10.619Z,55.40
2019-03-04T00:06:10.612Z,61.70
2019-03-04T00:07:10.599Z,64.40
2019-03-04T00:08:10.586Z,58.50
2019-03-04T00:09:10.579Z,58.59
2019-03-04T00:10:10.565Z,49.29
2019-03-04T00:11:10.558Z,44.00
2019-03-04T00:12:10.544Z,45.79
2019-03-04T00:13:10.538Z,49.20
2019-03-04T00:14:10.523Z,52.00
2019-03-04T00:15:10.514Z,48.50
2019-03-04T00:16:10.503Z,60.00
2019-03-04T00:17:10.492Z,47.00
2019-03-04T00:18:10.478Z,50.90
2019-03-04T00:19:10.468Z,40.00
2019-03-04T00:20:10.460Z,43.70
2019-03-04T00:21:10.448Z,62.20
2019-03-04T00:22:10.354Z,54.09
2019-03-04T00:23:10.427Z,68.09
2019-03-04T00:24:10.424Z,64.80
2019-03-04T00:25:10.409Z,57.09
2019-03-04T00:26:10.394Z,69.90
2019-03-04T00:27:10.386Z,64.30
2019-03-04T00:28:10.373Z,65.30
2019-03-04T00:29:10.368Z,88.59
2019-03-04T00:30:10.354Z,90.90
2019-03-04T00:31:10.343Z,80.30
2019-03-04T00:32:10.331Z,67.40
2019-03-04T00:33:10.323Z,52.59
2019-03-04T00:34:10.405Z,57.20
2019-03-04T00:35:10.303Z,55.90
2019-03-04T00:36:10.291Z,55.00
2019-03-04T00:37:10.287Z,54.90
2019-03-04T00:38:10.269Z,63.59
2019-03-04T00:39:10.264Z,65.59
2019-03-04T00:41:10.238Z,60.29
2019-03-04T00:42:10.227Z,53.40
2019-03-04T00:43:10.219Z,39.00
2019-03-04T00:44:10.209Z,31.79
2019-03-04T00:45:10.195Z,30.10
2019-03-04T00:46:10.185Z,47.70
2019-03-04T00:47:10.173Z,50.79
2019-03-04T00:48:10.164Z,41.40
2019-03-04T00:50:10.169Z,31.79
2019-03-04T00:51:10.217Z,44.79
2019-03-04T00:52:10.122Z,39.70
2019-03-04T00:53:10.112Z,38.79
2019-03-04T00:54:10.332Z,48.29
2019-03-04T00:55:10.092Z,54.90
2019-03-04T00:56:10.083Z,87.09
2019-03-04T00:57:10.070Z,79.09
2019-03-04T00:58:10.057Z,86.59
2019-03-04T00:59:10.051Z,101.09
2019-03-04T01:00:10.085Z,99.69
2019-03-04T01:01:10.041Z,99.00
2019-03-04T01:02:10.018Z,93.90
2019-03-04T01:03:10.007Z,104.40
2019-03-04T01:04:10.000Z,103.90
2019-03-04T01:05:09.988Z,94.19
2019-03-04T01:06:09.976Z,104.90
2019-03-04T01:07:09.964Z,97.59
2019-03-04T01:08:09.953Z,69.30
2019-03-04T01:09:10.043Z,78.09
2019-03-04T01:10:09.933Z,78.09
2019-03-04T01:11:09.924Z,72.00
2019-03-04T01:12:09.910Z,61.59
2019-03-04T01:13:09.905Z,58.20
2019-03-04T01:14:09.958Z,51.70
2019-03-04T01:15:09.967Z,57.00
2019-03-04T01:16:10.223Z,57.70
2019-03-04T01:17:09.858Z,64.40
2019-03-04T01:18:09.848Z,83.00
2019-03-04T01:19:09.838Z,71.50
2019-03-04T01:20:09.827Z,95.19
2019-03-04T01:21:09.818Z,72.50
2019-03-04T01:22:09.807Z,76.19
2019-03-04T01:23:09.794Z,71.90
2019-03-04T01:24:09.785Z,85.69
2019-03-04T01:25:09.773Z,71.59
2019-03-04T01:26:09.764Z,73.40
2019-03-04T01:27:09.754Z,82.80
2019-03-04T01:28:09.741Z,65.90
2019-03-04T01:29:09.729Z,59.40
2019-03-04T01:30:09.722Z,67.90
2019-03-04T01:31:09.710Z,76.09
2019-03-04T01:32:09.703Z,63.79
2019-03-04T01:33:09.689Z,67.00
2019-03-04T01:34:09.678Z,71.19
2019-03-04T01:35:09.668Z,59.29
2019-03-04T01:36:09.657Z,63.59
2019-03-04T01:37:09.652Z,53.90
2019-03-04T01:38:09.634Z,59.70
2019-03-04T01:39:09.625Z,64.19
2019-03-04T01:40:09.615Z,49.29
2019-03-04T01:41:09.604Z,60.79
2019-03-04T01:42:09.594Z,65.30
2019-03-04T01:43:09.586Z,61.29
2019-03-04T01:44:09.572Z,58.09
2019-03-04T01:45:09.496Z,69.40
2019-03-04T01:46:09.553Z,60.29
2019-03-04T01:47:09.541Z,54.70
2019-03-04T01:48:09.534Z,55.59
2019-03-04T01:49:09.523Z,53.90
2019-03-04T01:50:09.506Z,52.79
2019-03-04T01:51:09.501Z,63.70
2019-03-04T01:52:09.567Z,57.29
2019-03-04T01:53:09.478Z,62.90
2019-03-04T01:54:09.468Z,57.29
2019-03-04T01:55:09.713Z,63.70
2019-03-04T01:56:09.448Z,57.40
2019-03-04T01:57:09.437Z,54.00
2019-03-04T01:58:09.427Z,57.00
2019-03-04T01:59:09.419Z,56.40
2019-03-04T02:00:09.408Z,50.20
2019-03-04T02:01:09.396Z,71.90
2019-03-04T02:02:09.384Z,64.59
2019-03-04T02:03:09.379Z,64.19
2019-03-04T02:04:09.364Z,56.79
2019-03-04T02:05:09.353Z,71.90
2019-03-04T02:06:09.343Z,60.29
2019-03-04T02:07:09.330Z,56.59
2019-03-04T02:08:09.325Z,60.09
2019-03-04T02:09:09.313Z,58.70
2019-03-04T02:10:09.300Z,64.19
2019-03-04T02:11:09.291Z,62.09
2019-03-04T02:12:09.279Z,71.90
2019-03-04T02:13:09.267Z,67.69
2019-03-04T02:14:09.258Z,63.29
2019-03-04T02:15:09.249Z,64.19
2019-03-04T02:16:09.239Z,64.50
2019-03-04T02:17:09.230Z,71.80
2019-03-04T02:18:09.214Z,79.09
2019-03-04T02:19:09.208Z,74.19
2019-03-04T02:20:09.196Z,75.30
2019-03-04T02:21:09.184Z,77.69
2019-03-04T02:22:09.175Z,87.40
2019-03-04T02:23:09.163Z,74.40
2019-03-04T02:24:09.152Z,85.40
2019-03-04T02:25:09.146Z,85.40
2019-03-04T02:26:09.136Z,89.69
2019-03-04T02:27:09.207Z,80.50
2019-03-04T02:28:09.111Z,77.30
2019-03-04T02:29:09.100Z,80.40
2019-03-04T02:30:09.096Z,81.50
2019-03-04T02:31:09.078Z,84.00
2019-03-04T02:32:09.073Z,72.50
2019-03-04T02:33:09.063Z,75.30
2019-03-04T02:34:09.046Z,67.59
2019-03-04T02:35:09.035Z,68.69
2019-03-04T02:36:09.025Z,60.79
2019-03-04T02:37:09.015Z,64.90
2019-03-04T02:38:09.004Z,58.59
2019-03-04T02:39:08.995Z,65.40
2019-03-04T02:40:08.983Z,55.59
2019-03-04T02:41:09.023Z,55.90
2019-03-04T02:42:08.959Z,62.20
2019-03-04T02:43:08.948Z,56.79
2019-03-04T02:44:08.935Z,56.29
2019-03-04T02:45:08.928Z,53.70
2019-03-04T02:46:08.950Z,56.90
2019-03-04T02:47:09.213Z,63.40
2019-03-04T02:48:08.897Z,57.09
2019-03-04T02:49:08.951Z,58.79
2019-03-04T02:50:08.876Z,68.19
2019-03-04T02:51:08.863Z,55.29
2019-03-04T02:52:08.857Z,65.50
2019-03-04T02:53:08.842Z,62.90
2019-03-04T02:54:08.832Z,66.90
2019-03-04T02:55:08.822Z,53.29
2019-03-04T02:56:09.211Z,55.00
2019-03-04T02:57:08.899Z,55.79
2019-03-04T02:58:08.890Z,51.09
2019-03-04T02:59:08.787Z,64.09
2019-03-04T03:00:08.873Z,60.40
2019-03-04T03:01:08.759Z,75.80
2019-03-04T03:02:08.751Z,60.09
2019-03-04T03:03:08.745Z,63.59
2019-03-04T03:04:08.733Z,78.59
2019-03-04T03:05:08.724Z,66.19
2019-03-04T03:06:08.710Z,68.30
2019-03-04T03:07:08.695Z,69.40
2019-03-04T03:08:08.688Z,77.50
2019-03-04T03:09:08.680Z,78.19
2019-03-04T03:10:08.667Z,67.40
2019-03-04T03:11:08.676Z,82.30
2019-03-04T03:12:08.644Z,62.29
2019-03-04T03:13:08.636Z,74.19
2019-03-04T03:14:08.624Z,72.19
2019-03-04T03:15:08.612Z,71.59
2019-03-04T03:16:08.606Z,73.90
2019-03-04T03:17:08.591Z,65.90
2019-03-04T03:18:08.585Z,123.69
2019-03-04T03:19:08.572Z,117.59
2019-03-04T03:20:08.557Z,112.19
2019-03-04T03:21:08.548Z,105.00
2019-03-04T03:22:08.536Z,102.30
2019-03-04T03:23:08.525Z,91.40
2019-03-04T03:24:08.514Z,86.59
2019-03-04T03:25:08.502Z,100.09
2019-03-04T03:26:08.497Z,111.19
2019-03-04T03:27:08.482Z,122.59
2019-03-04T03:28:08.474Z,145.10
2019-03-04T03:29:08.459Z,124.00
2019-03-04T03:30:08.450Z,141.10
2019-03-04T03:31:08.441Z,152.69
2019-03-04T03:32:08.436Z,138.19
2019-03-04T03:33:08.421Z,135.60
2019-03-04T03:34:08.409Z,126.09
2019-03-04T03:35:09.035Z,124.09
2019-03-04T03:36:08.385Z,121.90
2019-03-04T03:37:08.378Z,125.40
2019-03-04T03:38:08.365Z,122.30
2019-03-04T03:39:08.405Z,127.30
2019-03-04T03:40:08.346Z,112.80
2019-03-04T03:41:08.334Z,133.39
2019-03-04T03:42:08.329Z,121.09
2019-03-04T03:43:08.321Z,123.69
2019-03-04T03:44:08.303Z,115.80
2019-03-04T03:45:08.297Z,133.10
2019-03-04T03:46:08.291Z,130.30
2019-03-04T03:47:08.271Z,121.59
2019-03-04T03:48:08.271Z,122.69
2019-03-04T03:49:08.253Z,119.80
2019-03-04T03:50:08.249Z,120.59
2019-03-04T03:51:08.236Z,118.80
2019-03-04T03:52:08.320Z,108.30
2019-03-04T03:53:08.213Z,110.50
2019-03-04T03:54:08.202Z,102.40
2019-03-04T03:55:08.189Z,111.40
2019-03-04T03:56:08.179Z,110.59
2019-03-04T03:57:08.268Z,97.90
2019-03-04T03:58:08.233Z,96.69
2019-03-04T03:59:08.149Z,112.09
2019-03-04T04:00:08.143Z,94.30
2019-03-04T04:01:08.126Z,79.40
2019-03-04T04:02:08.119Z,97.59
2019-03-04T04:03:08.105Z,85.00
2019-03-04T04:04:08.107Z,63.29
2019-03-04T04:05:08.082Z,49.59
2019-03-04T04:06:08.078Z,44.50
2019-03-04T04:07:08.147Z,40.00
2019-03-04T04:08:08.055Z,39.59
2019-03-04T04:09:08.043Z,40.40
2019-03-04T04:10:08.031Z,47.70
2019-03-04T04:11:08.020Z,51.50
2019-03-04T04:12:08.008Z,49.20
2019-03-04T04:13:08.014Z,51.79
2019-03-04T04:14:07.991Z,66.40
2019-03-04T04:15:07.977Z,85.40
2019-03-04T04:16:07.970Z,67.40
2019-03-04T04:17:07.960Z,70.50
2019-03-04T04:18:07.950Z,75.90
2019-03-04T04:19:07.938Z,61.79
2019-03-04T04:20:07.930Z,61.79
2019-03-04T04:21:07.916Z,47.90
2019-03-04T04:22:07.909Z,44.79
2019-03-04T04:23:07.893Z,39.50
2019-03-04T04:24:07.886Z,46.79
2019-03-04T04:25:07.875Z,42.90
2019-03-04T04:26:07.865Z,47.40
2019-03-04T04:27:07.853Z,57.00
2019-03-04T04:28:07.843Z,59.00
2019-03-04T04:29:07.852Z,52.29
2019-03-04T04:30:07.826Z,57.40
2019-03-04T04:31:07.811Z,62.09
2019-03-04T04:32:07.805Z,68.90
2019-03-04T04:33:07.793Z,67.80
2019-03-04T04:34:07.780Z,67.59
2019-03-04T04:35:07.770Z,62.90
2019-03-04T04:36:07.739Z,68.19
2019-03-04T04:37:07.746Z,71.00
2019-03-04T04:38:07.738Z,76.19
2019-03-04T04:39:07.726Z,65.90
2019-03-04T04:40:07.717Z,70.50
2019-03-04T04:41:07.705Z,66.69
2019-03-04T04:42:07.703Z,68.59
2019-03-04T04:43:07.690Z,66.90
2019-03-04T04:44:07.676Z,72.90
2019-03-04T04:45:07.667Z,65.19
2019-03-04T04:46:07.651Z,71.30
2019-03-04T04:47:07.642Z,72.09
2019-03-04T04:48:07.630Z,73.30
2019-03-04T04:49:07.620Z,63.00
2019-03-04T04:50:07.606Z,64.59
2019-03-04T04:51:07.599Z,71.90
2019-03-04T04:52:07.689Z,70.09
2019-03-04T04:53:07.678Z,76.00
2019-03-04T04:54:07.571Z,77.59
2019-03-04T04:55:07.559Z,72.09
2019-03-04T04:56:07.545Z,76.09
2019-03-04T04:57:07.542Z,66.80
2019-03-04T04:58:07.523Z,75.59
2019-03-04T04:59:07.514Z,72.30
2019-03-04T05:00:07.508Z,69.40
2019-03-04T05:01:07.491Z,66.00
2019-03-04T05:02:07.483Z,65.30
2019-03-04T05:03:07.475Z,71.90
2019-03-04T05:04:07.461Z,77.09
2019-03-04T05:05:07.458Z,63.00
2019-03-04T05:06:07.441Z,70.59
2019-03-04T05:07:07.434Z,70.30
2019-03-04T05:08:07.423Z,68.40
2019-03-04T05:09:07.414Z,84.80
2019-03-04T05:10:07.402Z,78.50
2019-03-04T05:11:07.387Z,71.80
2019-03-04T05:12:07.382Z,73.19
2019-03-04T05:13:07.366Z,67.59
2019-03-04T05:14:07.359Z,68.30
2019-03-04T05:15:07.348Z,64.40
2019-03-04T05:16:07.336Z,65.50
2019-03-04T05:17:07.326Z,47.90
2019-03-04T05:18:07.313Z,48.09
2019-03-04T05:19:07.302Z,48.59
2019-03-04T05:20:07.295Z,53.29
2019-03-04T05:21:07.286Z,51.79
2019-03-04T05:22:07.271Z,52.40
2019-03-04T05:23:07.262Z,58.70
2019-03-04T05:24:07.252Z,67.59
2019-03-04T05:25:07.243Z,65.40
2019-03-04T05:26:07.230Z,72.80
2019-03-04T05:27:07.220Z,70.00
2019-03-04T05:28:07.218Z,72.59
2019-03-04T05:29:07.205Z,66.69
2019-03-04T05:30:07.221Z,68.80
2019-03-04T05:31:07.178Z,66.80
2019-03-04T05:32:07.167Z,61.09
2019-03-04T05:33:07.159Z,46.20
2019-03-04T05:34:07.145Z,51.70
2019-03-04T05:35:07.219Z,53.50
2019-03-04T05:36:07.125Z,51.90
2019-03-04T05:37:07.116Z,57.50
2019-03-04T05:38:07.105Z,56.79
2019-03-04T05:39:07.093Z,52.00
2019-03-04T05:40:07.082Z,51.70
2019-03-04T05:41:07.077Z,56.90
2019-03-04T05:42:07.062Z,53.00
2019-03-04T05:43:07.054Z,56.70
2019-03-04T05:44:07.040Z,57.40
2019-03-04T05:45:07.030Z,56.90
2019-03-04T05:46:07.026Z,56.90
2019-03-04T05:47:07.011Z,58.09
2019-03-04T05:48:07.704Z,55.50
2019-03-04T05:49:07.011Z,62.70
2019-03-04T05:50:06.882Z,58.50
2019-03-04T05:51:06.967Z,64.80
2019-03-04T05:52:06.955Z,63.09
2019-03-04T05:53:07.048Z,63.59
2019-03-04T05:54:06.936Z,60.09
2019-03-04T05:55:08.831Z,70.09
2019-03-04T05:56:06.916Z,73.69
2019-03-04T05:57:06.904Z,66.09
2019-03-04T05:58:06.894Z,64.00
2019-03-04T05:59:06.790Z,74.90
2019-03-04T06:00:06.876Z,66.30
2019-03-04T06:01:06.868Z,71.80
2019-03-04T06:02:06.853Z,67.59
2019-03-04T06:03:06.842Z,63.20
2019-03-04T06:04:06.831Z,69.59
2019-03-04T06:05:06.825Z,68.00
2019-03-04T06:06:06.811Z,66.50
2019-03-04T06:07:06.804Z,63.20
2019-03-04T06:08:06.791Z,63.00
2019-03-04T06:09:06.779Z,57.90
2019-03-04T06:10:07.070Z,71.40
2019-03-04T06:11:06.761Z,71.00
2019-03-04T06:12:06.752Z,67.40
2019-03-04T06:13:06.741Z,64.50
2019-03-04T06:14:06.728Z,64.90
2019-03-04T06:15:06.721Z,68.59
2019-03-04T06:16:06.708Z,58.00
2019-03-04T06:17:06.700Z,46.40
2019-03-04T06:18:06.690Z,45.00
2019-03-04T06:19:06.677Z,49.50
2019-03-04T06:20:06.666Z,47.50
2019-03-04T06:21:06.659Z,51.20
2019-03-04T06:22:06.645Z,50.50
2019-03-04T06:23:06.637Z,56.70
2019-03-04T06:24:06.626Z,49.00
2019-03-04T06:25:07.483Z,48.50
2019-03-04T06:26:06.605Z,47.29
2019-03-04T06:27:06.595Z,45.90
2019-03-04T06:28:06.595Z,39.20
2019-03-04T06:29:06.575Z,37.79
2019-03-04T06:30:06.566Z,41.79
2019-03-04T06:31:06.555Z,46.20
2019-03-04T06:32:06.544Z,46.29
2019-03-04T06:33:06.831Z,43.59
2019-03-04T06:34:06.520Z,43.90
2019-03-04T06:35:06.515Z,40.59
2019-03-04T06:36:06.501Z,40.90
2019-03-04T06:37:06.494Z,40.90
2019-03-04T06:38:06.479Z,45.20
2019-03-04T06:39:06.472Z,45.50
2019-03-04T06:40:06.466Z,41.40
2019-03-04T06:41:06.448Z,45.29
2019-03-04T06:42:06.440Z,39.00
2019-03-04T06:43:06.430Z,46.79
2019-03-04T06:44:06.421Z,37.00
2019-03-04T06:45:06.408Z,37.09
2019-03-04T06:46:06.399Z,37.40
2019-03-04T06:47:06.393Z,34.70
2019-03-04T06:48:06.386Z,30.39
2019-03-04T06:49:06.379Z,30.60
2019-03-04T06:50:06.369Z,29.10
2019-03-04T06:51:06.368Z,33.70
2019-03-04T06:52:06.341Z,31.29
2019-03-04T06:53:06.427Z,29.60
2019-03-04T06:54:06.438Z,31.50
2019-03-04T06:55:06.315Z,31.70
2019-03-04T06:56:06.295Z,35.70
2019-03-04T06:57:06.281Z,32.29
2019-03-04T06:58:06.273Z,32.50
2019-03-04T06:59:06.264Z,28.89
2019-03-04T07:00:06.252Z,28.20
2019-03-04T07:01:06.242Z,31.70
2019-03-04T07:02:06.230Z,25.89
2019-03-04T07:03:06.218Z,25.79
2019-03-04T07:04:06.213Z,23.39
2019-03-04T07:05:06.196Z,25.70
2019-03-04T07:06:06.189Z,25.60
2019-03-04T07:07:06.179Z,24.70
2019-03-04T07:08:06.164Z,27.10
2019-03-04T07:09:06.254Z,23.00
2019-03-04T07:10:06.146Z,22.60
2019-03-04T07:11:06.134Z,22.89
2019-03-04T07:12:06.130Z,21.00
2019-03-04T07:13:06.111Z,28.20
2019-03-04T07:14:06.106Z,24.79
2019-03-04T07:15:06.132Z,22.29
2019-03-04T07:16:06.082Z,25.60
2019-03-04T07:17:06.074Z,27.00
2019-03-04T07:18:06.060Z,23.39
2019-03-04T07:19:06.078Z,24.10
2019-03-04T07:20:06.038Z,26.29
2019-03-04T07:21:05.949Z,27.60
2019-03-04T07:22:06.019Z,32.00
2019-03-04T07:23:06.058Z,30.79
2019-03-04T07:24:05.996Z,26.39
2019-03-04T07:25:05.988Z,32.59
2019-03-04T07:26:05.976Z,33.40
2019-03-04T07:27:05.998Z,39.50
2019-03-04T07:28:05.950Z,29.50
2019-03-04T07:29:05.941Z,29.10
2019-03-04T07:30:05.933Z,28.00
2019-03-04T07:31:05.916Z,31.79
2019-03-04T07:32:05.910Z,28.00
2019-03-04T07:33:05.895Z,29.20
2019-03-04T07:34:05.889Z,27.70
2019-03-04T07:35:05.876Z,26.10
2019-03-04T07:36:08.023Z,28.10
2019-03-04T07:37:05.859Z,27.20
2019-03-04T07:38:05.847Z,28.29
2019-03-04T07:39:05.835Z,27.50
2019-03-04T07:40:05.821Z,23.10
2019-03-04T07:41:05.813Z,29.70
2019-03-04T07:42:05.808Z,20.79
2019-03-04T07:43:05.869Z,30.50
2019-03-04T07:44:05.783Z,25.50
2019-03-04T07:45:05.767Z,19.10
2019-03-04T07:46:05.760Z,19.10
2019-03-04T07:47:05.747Z,16.29
2019-03-04T07:48:05.734Z,16.20
2019-03-04T07:49:05.726Z,17.70
2019-03-04T07:50:05.715Z,18.89
2019-03-04T07:51:05.702Z,19.39
2019-03-04T07:52:05.694Z,18.10
2019-03-04T07:53:05.684Z,17.60
2019-03-04T07:54:05.772Z,17.89
2019-03-04T07:55:05.661Z,22.10
2019-03-04T07:56:05.657Z,19.50
2019-03-04T07:57:05.640Z,21.89
2019-03-04T07:58:05.622Z,20.29
2019-03-04T07:59:05.614Z,20.89
2019-03-04T08:00:05.602Z,27.60
2019-03-04T08:01:05.594Z,27.89
2019-03-04T08:02:05.584Z,23.39
2019-03-04T08:03:05.573Z,21.39
2019-03-04T08:04:05.567Z,29.70
2019-03-04T08:05:05.549Z,25.10
2019-03-04T08:06:05.542Z,21.29
2019-03-04T08:07:05.527Z,27.20
2019-03-04T08:08:05.519Z,19.20
2019-03-04T08:09:05.506Z,26.10
2019-03-04T08:10:05.498Z,24.00
2019-03-04T08:11:05.487Z,22.89
2019-03-04T08:12:05.472Z,27.39
2019-03-04T08:13:05.473Z,20.79
2019-03-04T08:14:05.452Z,48.70
2019-03-04T08:15:05.446Z,27.20
2019-03-04T08:16:05.438Z,23.20
2019-03-04T08:17:05.419Z,19.39
2019-03-04T08:18:05.417Z,25.79
2019-03-04T08:19:05.399Z,26.70
2019-03-04T08:20:05.391Z,41.00
2019-03-04T08:21:05.377Z,23.00
2019-03-04T08:22:05.366Z,20.20
2019-03-04T08:23:05.358Z,18.79
2019-03-04T08:24:05.344Z,23.29
2019-03-04T08:25:05.337Z,21.60
2019-03-04T08:26:05.325Z,23.89
2019-03-04T08:27:05.314Z,29.79
2019-03-04T08:28:05.303Z,19.89
2019-03-04T08:29:05.295Z,22.00
2019-03-04T08:30:05.277Z,29.39
2019-03-04T08:31:05.272Z,30.60
2019-03-04T08:32:05.259Z,21.00
2019-03-04T08:33:05.248Z,24.70
2019-03-04T08:34:05.238Z,23.89
2019-03-04T08:35:05.226Z,21.10
2019-03-04T08:36:05.218Z,24.79
2019-03-04T08:37:05.206Z,25.79
2019-03-04T08:38:05.195Z,20.00
2019-03-04T08:39:05.183Z,22.89
2019-03-04T08:40:05.172Z,28.00
2019-03-04T08:41:05.163Z,27.20
2019-03-04T08:42:05.151Z,27.29
2019-03-04T08:43:05.139Z,24.29
2019-03-04T08:44:05.132Z,20.29
2019-03-04T08:45:05.121Z,22.79
2019-03-04T08:46:05.112Z,26.39
2019-03-04T08:47:05.100Z,21.29
2019-03-04T08:48:05.087Z,20.00
2019-03-04T08:49:05.079Z,20.70
2019-03-04T08:50:05.067Z,18.50
2019-03-04T08:51:05.059Z,26.29
2019-03-04T08:52:05.046Z,18.79
2019-03-04T08:53:05.038Z,18.60
2019-03-04T08:54:05.027Z,19.39
2019-03-04T08:55:05.414Z,22.50
2019-03-04T08:56:05.074Z,16.79
2019-03-04T08:57:04.996Z,22.20
2019-03-04T08:58:05.087Z,21.29
2019-03-04T08:59:04.974Z,21.50
2019-03-04T09:00:05.063Z,21.50
2019-03-04T09:01:04.952Z,25.79
2019-03-04T09:02:04.941Z,20.70
2019-03-04T09:03:04.930Z,21.10
2019-03-04T09:04:04.919Z,26.00
2019-03-04T09:05:04.910Z,20.79
2019-03-04T09:06:04.900Z,30.60
2019-03-04T09:07:04.891Z,31.50
2019-03-04T09:08:04.876Z,24.10
2019-03-04T09:09:04.906Z,25.20
2019-03-04T09:10:04.857Z,21.70
2019-03-04T09:11:04.849Z,22.29
2019-03-04T09:12:04.840Z,19.50
2019-03-04T09:13:04.826Z,24.79
2019-03-04T09:14:04.816Z,21.29
2019-03-04T09:15:04.870Z,21.50
2019-03-04T09:16:04.790Z,22.79
2019-03-04T09:17:04.780Z,23.50
2019-03-04T09:18:04.769Z,23.50
2019-03-04T09:19:04.757Z,23.10
2019-03-04T09:20:04.755Z,22.00
2019-03-04T09:21:04.736Z,24.50
2019-03-04T09:22:04.730Z,24.70
2019-03-04T09:23:04.720Z,16.50
2019-03-04T09:24:04.708Z,20.60
2019-03-04T09:25:04.700Z,18.50
2019-03-04T09:26:04.686Z,20.10
2019-03-04T09:27:04.677Z,23.29
2019-03-04T09:28:04.663Z,29.00
2019-03-04T09:29:04.652Z,37.20
2019-03-04T09:30:04.644Z,36.20
2019-03-04T09:31:04.633Z,26.89
2019-03-04T09:32:04.620Z,29.20
2019-03-04T09:33:04.609Z,25.89
2019-03-04T09:34:04.601Z,17.79
2019-03-04T09:35:04.585Z,16.00
2019-03-04T09:36:04.576Z,19.50
2019-03-04T09:37:05.194Z,34.29
2019-03-04T09:38:04.556Z,20.89
2019-03-04T09:39:04.542Z,29.20
2019-03-04T09:40:04.537Z,25.20
2019-03-04T09:41:04.524Z,27.20
2019-03-04T09:42:04.515Z,39.00
2019-03-04T09:43:04.506Z,18.29
2019-03-04T09:44:04.498Z,22.00
2019-03-04T09:45:04.478Z,16.00
2019-03-04T09:46:04.468Z,18.60
2019-03-04T09:47:04.456Z,13.80
2019-03-04T09:48:04.448Z,18.39
2019-03-04T09:49:04.435Z,13.30
2019-03-04T09:50:04.439Z,11.69
2019-03-04T09:51:04.418Z,12.30
2019-03-04T09:52:04.506Z,10.80
2019-03-04T09:53:04.399Z,16.60
2019-03-04T09:54:04.387Z,13.10
2019-03-04T09:55:04.378Z,13.39
2019-03-04T09:56:04.464Z,9.10
2019-03-04T09:57:04.356Z,21.00
2019-03-04T09:58:04.341Z,15.39
2019-03-04T09:59:04.344Z,8.50
2019-03-04T10:00:04.324Z,13.89
2019-03-04T10:01:04.308Z,13.80
2019-03-04T10:02:04.300Z,21.39
2019-03-04T10:03:04.294Z,25.70
2019-03-04T10:04:04.276Z,17.60
2019-03-04T10:05:04.266Z,22.60
2019-03-04T10:06:04.255Z,16.70
2019-03-04T10:07:04.250Z,17.00
2019-03-04T10:08:04.238Z,12.50
2019-03-04T10:09:04.220Z,14.39
2019-03-04T10:10:04.292Z,14.30
2019-03-04T10:11:04.258Z,16.50
2019-03-04T10:12:04.195Z,18.70
2019-03-04T10:13:04.222Z,19.39
2019-03-04T10:14:04.135Z,21.00
2019-03-04T10:15:08.474Z,18.29
2019-03-04T10:16:04.150Z,27.29
2019-03-04T10:17:04.230Z,32.20
2019-03-04T10:18:04.131Z,23.70
2019-03-04T10:19:04.150Z,24.79
2019-03-04T10:20:04.108Z,12.30
2019-03-04T10:21:04.098Z,10.10
2019-03-04T10:22:04.088Z,12.89
2019-03-04T10:23:04.081Z,15.69
2019-03-04T10:24:04.067Z,15.80
2019-03-04T10:25:04.056Z,11.10
2019-03-04T10:26:04.044Z,11.80
2019-03-04T10:27:04.035Z,15.10
2019-03-04T10:28:04.023Z,13.50
2019-03-04T10:29:04.312Z,11.89
2019-03-04T10:30:04.005Z,10.60
2019-03-04T10:31:03.990Z,15.69
2019-03-04T10:32:03.984Z,16.00
2019-03-04T10:33:03.977Z,15.00
2019-03-04T10:34:03.962Z,15.80
2019-03-04T10:35:03.951Z,13.30
2019-03-04T10:36:04.240Z,12.60
2019-03-04T10:37:03.927Z,13.10
2019-03-04T10:38:03.931Z,13.19
2019-03-04T10:39:03.907Z,16.20
2019-03-04T10:40:03.904Z,18.00
2019-03-04T10:41:03.886Z,13.69
2019-03-04T10:42:03.881Z,8.30
2019-03-04T10:43:03.866Z,14.19
2019-03-04T10:44:03.858Z,12.30
2019-03-04T10:45:03.859Z,10.60
2019-03-04T10:46:03.841Z,9.89
2019-03-04T10:47:03.828Z,13.30
2019-03-04T10:48:03.818Z,13.60
2019-03-04T10:49:03.811Z,13.39
2019-03-04T10:50:03.794Z,12.80
2019-03-04T10:51:03.778Z,14.69
2019-03-04T10:52:03.769Z,9.10
2019-03-04T10:53:04.013Z,11.69
2019-03-04T10:54:03.758Z,10.10
2019-03-04T10:55:03.743Z,10.60
2019-03-04T10:56:03.731Z,14.00
2019-03-04T10:57:03.722Z,11.10
2019-03-04T10:58:03.706Z,6.59
2019-03-04T10:59:03.710Z,10.80
2019-03-04T11:00:03.684Z,13.89
2019-03-04T11:01:03.686Z,10.69
2019-03-04T11:02:03.663Z,11.10
2019-03-04T11:03:03.660Z,13.00
2019-03-04T11:04:03.645Z,13.60
2019-03-04T11:05:03.637Z,13.00
2019-03-04T11:06:03.622Z,10.60
2019-03-04T11:07:03.618Z,12.50
2019-03-04T11:08:03.604Z,6.80
2019-03-04T11:09:03.599Z,5.09
2019-03-04T11:10:03.584Z,10.39
2019-03-04T11:11:03.569Z,9.10
2019-03-04T11:12:03.568Z,7.19
2019-03-04T11:13:03.550Z,9.60
2019-03-04T11:14:03.538Z,8.10
2019-03-04T11:15:03.527Z,8.89
2019-03-04T11:16:03.516Z,12.60
2019-03-04T11:17:03.528Z,7.80
2019-03-04T11:18:03.498Z,9.00
2019-03-04T11:19:03.496Z,8.80
2019-03-04T11:20:03.477Z,7.59
2019-03-04T11:21:03.469Z,8.19
2019-03-04T11:22:03.457Z,6.69
2019-03-04T11:23:03.445Z,10.69
2019-03-04T11:24:03.438Z,11.60
2019-03-04T11:25:03.426Z,14.60
2019-03-04T11:26:03.416Z,9.00
2019-03-04T11:27:03.401Z,11.19
2019-03-04T11:28:03.388Z,9.19
2019-03-04T11:29:03.380Z,9.39
2019-03-04T11:30:03.373Z,9.39
2019-03-04T11:31:03.362Z,8.19
2019-03-04T11:32:03.353Z,9.80
2019-03-04T11:33:03.954Z,10.89
2019-03-04T11:34:03.331Z,8.60
2019-03-04T11:35:03.391Z,8.19
2019-03-04T11:36:03.309Z,9.80
2019-03-04T11:37:03.297Z,7.59
2019-03-04T11:38:03.289Z,9.80
2019-03-04T11:39:03.368Z,10.60
2019-03-04T11:40:03.272Z,8.30
2019-03-04T11:41:03.264Z,8.69
2019-03-04T11:42:03.251Z,10.39
2019-03-04T11:43:03.239Z,7.59
2019-03-04T11:44:03.226Z,9.00
2019-03-04T11:45:03.216Z,9.10
2019-03-04T11:46:03.202Z,11.39
2019-03-04T11:47:03.192Z,11.89
2019-03-04T11:48:03.183Z,9.80
2019-03-04T11:49:03.178Z,12.69
2019-03-04T11:50:03.161Z,10.50
2019-03-04T11:51:03.149Z,13.89
2019-03-04T11:52:03.144Z,10.10
2019-03-04T11:53:03.134Z,13.50
2019-03-04T11:54:03.523Z,6.59
2019-03-04T11:55:03.104Z,9.39
2019-03-04T11:56:03.095Z,11.80
2019-03-04T11:57:03.080Z,7.80
2019-03-04T11:58:03.071Z,13.39
2019-03-04T11:59:03.063Z,9.00
2019-03-04T12:00:03.053Z,9.10
2019-03-04T12:01:03.049Z,7.40
2019-03-04T12:02:03.032Z,10.19
2019-03-04T12:03:03.022Z,10.00
2019-03-04T12:04:03.008Z,8.80
2019-03-04T12:05:02.998Z,9.19
2019-03-04T12:06:02.988Z,12.30
2019-03-04T12:07:02.980Z,13.89
2019-03-04T12:08:02.969Z,10.19
2019-03-04T12:09:02.957Z,9.80
2019-03-04T12:10:02.944Z,6.50
2019-03-04T12:11:02.935Z,9.10
2019-03-04T12:12:02.921Z,9.39
2019-03-04T12:13:02.910Z,12.89
2019-03-04T12:14:03.317Z,7.59
2019-03-04T12:15:02.890Z,9.39
2019-03-04T12:16:02.880Z,8.50
2019-03-04T12:17:02.865Z,9.80
2019-03-04T12:18:02.860Z,8.60
2019-03-04T12:19:02.849Z,9.30
2019-03-04T12:20:02.838Z,9.89
2019-03-04T12:21:02.827Z,10.60
2019-03-04T12:22:02.813Z,10.60
2019-03-04T12:23:02.802Z,9.80
2019-03-04T12:24:02.793Z,11.39
2019-03-04T12:25:02.784Z,9.80
2019-03-04T12:26:02.773Z,13.80
2019-03-04T12:27:02.764Z,16.29
2019-03-04T12:28:02.754Z,15.00
2019-03-04T12:29:02.740Z,15.69
2019-03-04T12:30:02.728Z,16.89
2019-03-04T12:31:02.721Z,15.39
2019-03-04T12:32:02.706Z,12.00
2019-03-04T12:33:02.695Z,13.39
2019-03-04T12:34:02.686Z,12.69
2019-03-04T12:35:02.680Z,15.39
2019-03-04T12:36:02.666Z,15.10
2019-03-04T12:37:02.652Z,13.60
2019-03-04T12:38:02.742Z,15.69
2019-03-04T12:39:02.634Z,16.70
2019-03-04T12:40:02.624Z,14.89
2019-03-04T12:41:02.611Z,15.19
2019-03-04T12:42:02.599Z,17.29
2019-03-04T12:43:02.591Z,17.20
2019-03-04T12:44:02.649Z,18.29
2019-03-04T12:45:02.475Z,25.00
2019-03-04T12:46:02.474Z,21.20
2019-03-04T12:47:02.554Z,15.39
2019-03-04T12:48:02.536Z,19.60
2019-03-04T12:49:02.491Z,16.89
2019-03-04T12:50:02.511Z,18.29
2019-03-04T12:51:02.511Z,19.89
2019-03-04T12:52:02.496Z,21.50
2019-03-04T12:53:02.480Z,17.39
2019-03-04T12:54:02.477Z,19.10
2019-03-04T12:55:02.705Z,18.70